Time;durP1;ratioP1;P1;durP2;ratioP2;P2;SDS_P1;SDS_P2;PMS_P1;PMS_P2;Temp;Humidity;BMP_temperature;BMP_pressure;BME280_temperature;BME280_humidity;BME280_pressure;Samples;Min_cycle;Max_cycle;Signal;HPM_P1;HPM_P2
2021/12/20 00:00:19;;;;;;;29.33;18.90;;;;;;;;;;5005237;28;20055;-75
2021/12/20 00:03:05;;;;;;;29.77;19.58;;;;;;;;;;4986788;28;20152;-72
2021/12/20 00:05:32;;;;;;;27.60;17.75;;;;;;;;;;5007537;28;20462;-74
2021/12/20 00:07:58;;;;;;;24.83;17.08;;;;;;;;;;4990410;28;20053;-75
2021/12/20 00:10:24;;;;;;;25.85;16.98;;;;;;;;;;5006286;28;20070;-72
2021/12/20 00:12:54;;;;;;;26.23;17.10;;;;;;;;;;5001852;28;20598;-74
2021/12/20 00:15:23;;;;;;;27.42;16.25;;;;;;;;;;4988436;28;20052;-73
2021/12/20 00:17:49;;;;;;;24.63;15.98;;;;;;;;;;4990591;28;20116;-74
2021/12/20 00:20:17;;;;;;;20.63;14.45;;;;;;;;;;4987757;28;20068;-71
2021/12/20 00:22:45;;;;;;;20.05;14.65;;;;;;;;;;5002520;28;20675;-74
2021/12/20 00:25:13;;;;;;;18.67;13.93;;;;;;;;;;4971936;28;20065;-74
2021/12/20 00:27:39;;;;;;;21.30;14.15;;;;;;;;;;4983484;28;20060;-72
2021/12/20 00:30:08;;;;;;;19.40;13.18;;;;;;;;;;5001438;28;20100;-72
2021/12/20 00:32:34;;;;;;;21.75;13.65;;;;;;;;;;4981314;28;20049;-73
2021/12/20 00:35:01;;;;;;;18.88;13.73;;;;;;;;;;4983595;28;20056;-74
2021/12/20 00:40:22;;;;;;;21.77;13.60;;;;;;;;;;5004789;28;20057;-72
2021/12/20 00:42:49;;;;;;;23.20;13.80;;;;;;;;;;5002053;28;20045;-72
2021/12/20 00:45:17;;;;;;;22.67;14.07;;;;;;;;;;4989300;28;20062;-71
2021/12/20 00:47:44;;;;;;;20.80;15.07;;;;;;;;;;5002552;28;20049;-73
2021/12/20 00:50:12;;;;;;;20.40;13.80;;;;;;;;;;5003650;28;20053;-72
2021/12/20 00:52:41;;;;;;;19.52;14.75;;;;;;;;;;4999529;28;20566;-73
2021/12/20 00:55:07;;;;;;;21.98;14.52;;;;;;;;;;4984016;28;20045;-73
2021/12/20 00:57:35;;;;;;;21.20;15.35;;;;;;;;;;5000101;28;20099;-75
2021/12/20 01:00:03;;;;;;;22.83;15.63;;;;;;;;;;4984300;28;20446;-71
2021/12/20 01:02:29;;;;;;;27.35;14.98;;;;;;;;;;4998762;28;20497;-71
2021/12/20 01:04:56;;;;;;;24.42;15.18;;;;;;;;;;5004620;28;20057;-73
2021/12/20 01:07:23;;;;;;;21.67;15.18;;;;;;;;;;4998849;28;20498;-72
2021/12/20 01:09:49;;;;;;;25.25;16.15;;;;;;;;;;4986610;28;20050;-71
2021/12/20 01:12:19;;;;;;;25.83;16.13;;;;;;;;;;4982403;28;20071;-71
2021/12/20 01:14:46;;;;;;;18.80;14.18;;;;;;;;;;4985882;28;20053;-72
2021/12/20 01:17:12;;;;;;;20.38;14.88;;;;;;;;;;5001828;28;21496;-71
2021/12/20 01:19:39;;;;;;;23.80;15.18;;;;;;;;;;4974077;28;20860;-73
2021/12/20 01:22:06;;;;;;;21.48;15.00;;;;;;;;;;4965615;28;20099;-72
2021/12/20 01:24:32;;;;;;;23.25;14.80;;;;;;;;;;4984850;28;20619;-73
2021/12/20 01:26:58;;;;;;;23.48;14.88;;;;;;;;;;5001514;28;20057;-72
2021/12/20 01:29:25;;;;;;;21.42;14.40;;;;;;;;;;5003312;28;20136;-71
2021/12/20 01:31:51;;;;;;;21.30;14.02;;;;;;;;;;5000089;28;20061;-72
2021/12/20 01:34:17;;;;;;;22.50;13.68;;;;;;;;;;4970445;28;20669;-72
2021/12/20 01:36:43;;;;;;;20.35;13.20;;;;;;;;;;5000810;28;20084;-72
2021/12/20 01:39:09;;;;;;;21.40;13.25;;;;;;;;;;4985518;28;20054;-72
2021/12/20 01:41:41;;;;;;;16.95;12.50;;;;;;;;;;4980143;28;20143;-72
2021/12/20 01:44:09;;;;;;;18.92;12.40;;;;;;;;;;5001966;28;20096;-73
2021/12/20 01:46:35;;;;;;;19.65;13.13;;;;;;;;;;5003398;28;20041;-73
2021/12/20 01:49:04;;;;;;;17.17;12.05;;;;;;;;;;4969002;28;20438;-73
2021/12/20 01:53:58;;;;;;;17.00;12.07;;;;;;;;;;5004904;28;20072;-73
2021/12/20 01:56:24;;;;;;;21.08;11.55;;;;;;;;;;5001563;28;20053;-71
2021/12/20 01:58:51;;;;;;;17.08;11.82;;;;;;;;;;5002258;28;20209;-73
2021/12/20 02:01:20;;;;;;;20.35;11.50;;;;;;;;;;5001102;28;20092;-71
2021/12/20 02:03:54;;;;;;;17.13;11.70;;;;;;;;;;5004344;28;20080;-71
2021/12/20 02:08:47;;;;;;;17.85;12.07;;;;;;;;;;5000421;28;20390;-73
2021/12/20 02:11:18;;;;;;;16.88;11.75;;;;;;;;;;4981440;28;21555;-74
2021/12/20 02:13:45;;;;;;;16.95;10.60;;;;;;;;;;4967454;28;20057;-71
2021/12/20 02:16:11;;;;;;;19.58;10.75;;;;;;;;;;4974610;28;20063;-73
2021/12/20 02:18:37;;;;;;;15.75;10.98;;;;;;;;;;4980893;28;20050;-71
2021/12/20 02:21:04;;;;;;;16.58;10.52;;;;;;;;;;5000887;28;20057;-71
2021/12/20 02:23:30;;;;;;;16.92;10.50;;;;;;;;;;4997837;28;20244;-70
2021/12/20 02:25:59;;;;;;;15.45;10.02;;;;;;;;;;4966862;28;20077;-71
2021/12/20 02:28:29;;;;;;;17.13;10.35;;;;;;;;;;4982606;28;20507;-74
2021/12/20 02:39:00;;;;;;;16.60;10.82;;;;;;;;;;5004307;28;20053;-74
2021/12/20 02:41:32;;;;;;;16.42;10.93;;;;;;;;;;5000127;28;21014;-73
2021/12/20 02:44:15;;;;;;;15.18;10.98;;;;;;;;;;5005169;28;20049;-72
2021/12/20 02:49:20;;;;;;;16.70;11.85;;;;;;;;;;5001428;28;20068;-72
2021/12/20 02:51:53;;;;;;;16.70;11.25;;;;;;;;;;4981550;28;20464;-71
2021/12/20 02:54:22;;;;;;;16.48;11.73;;;;;;;;;;5006805;28;20053;-73
2021/12/20 02:56:48;;;;;;;17.73;11.85;;;;;;;;;;4984394;28;20054;-72
2021/12/20 02:59:16;;;;;;;16.02;12.98;;;;;;;;;;4983296;28;20611;-75
2021/12/20 03:01:46;;;;;;;19.40;12.70;;;;;;;;;;4981394;28;20166;-71
2021/12/20 03:04:13;;;;;;;17.63;12.43;;;;;;;;;;4988319;28;20092;-73
2021/12/20 03:06:51;;;;;;;18.38;11.77;;;;;;;;;;5001926;28;20422;-71
2021/12/20 03:09:21;;;;;;;19.52;12.52;;;;;;;;;;4985077;28;21459;-72
2021/12/20 03:11:51;;;;;;;19.38;12.00;;;;;;;;;;4998483;28;20510;-72
2021/12/20 03:14:27;;;;;;;15.50;11.98;;;;;;;;;;4985343;28;20104;-70
2021/12/20 03:16:54;;;;;;;18.30;12.38;;;;;;;;;;5002297;28;20057;-72
2021/12/20 03:19:20;;;;;;;16.77;11.52;;;;;;;;;;4966586;28;20676;-71
2021/12/20 03:21:46;;;;;;;18.48;11.55;;;;;;;;;;4979974;28;20525;-71
2021/12/20 03:24:13;;;;;;;14.48;10.90;;;;;;;;;;5003114;28;20049;-72
2021/12/20 03:26:39;;;;;;;14.63;11.05;;;;;;;;;;4998691;28;20111;-72
2021/12/20 03:29:06;;;;;;;15.60;10.77;;;;;;;;;;4982888;28;20087;-71
2021/12/20 03:31:32;;;;;;;18.08;10.80;;;;;;;;;;4997843;28;20057;-71
2021/12/20 03:33:59;;;;;;;14.40;10.25;;;;;;;;;;5003457;28;20881;-71
2021/12/20 03:36:25;;;;;;;13.77;9.23;;;;;;;;;;4983261;28;20057;-69
2021/12/20 03:38:51;;;;;;;13.60;8.85;;;;;;;;;;4969169;28;20058;-73
2021/12/20 03:41:18;;;;;;;11.95;8.77;;;;;;;;;;4997914;28;20439;-71
2021/12/20 03:43:44;;;;;;;12.45;9.55;;;;;;;;;;4982414;28;20053;-71
2021/12/20 03:46:10;;;;;;;12.88;8.93;;;;;;;;;;4999560;28;20156;-71
2021/12/20 03:48:37;;;;;;;15.05;9.70;;;;;;;;;;5010195;28;20045;-71
2021/12/20 03:51:05;;;;;;;13.25;9.18;;;;;;;;;;4987412;28;20411;-72
2021/12/20 03:53:33;;;;;;;15.75;10.65;;;;;;;;;;4979535;28;20057;-71
2021/12/20 03:56:01;;;;;;;14.85;10.02;;;;;;;;;;4980283;28;20084;-71
2021/12/20 03:58:28;;;;;;;16.52;10.32;;;;;;;;;;4981135;28;20057;-72
2021/12/20 04:00:56;;;;;;;14.90;10.27;;;;;;;;;;4979199;28;20589;-73
2021/12/20 04:03:24;;;;;;;15.77;11.13;;;;;;;;;;4977246;28;20191;-70
2021/12/20 04:05:51;;;;;;;14.65;10.02;;;;;;;;;;4979286;28;20062;-71
2021/12/20 04:08:18;;;;;;;13.25;10.65;;;;;;;;;;4978631;28;20503;-72
2021/12/20 04:10:44;;;;;;;18.23;10.68;;;;;;;;;;4980315;28;20794;-72
2021/12/20 04:13:10;;;;;;;15.75;10.30;;;;;;;;;;4975357;28;20498;-71
2021/12/20 04:15:37;;;;;;;16.08;10.25;;;;;;;;;;4964079;28;20695;-71
2021/12/20 04:18:04;;;;;;;16.13;11.25;;;;;;;;;;4981065;28;20061;-71
2021/12/20 04:20:30;;;;;;;11.90;9.18;;;;;;;;;;4979683;28;20533;-70
2021/12/20 04:22:56;;;;;;;13.82;9.13;;;;;;;;;;4975353;28;20068;-72
2021/12/20 04:25:23;;;;;;;13.63;9.27;;;;;;;;;;4981247;28;20076;-71
2021/12/20 04:27:49;;;;;;;12.63;9.10;;;;;;;;;;4977939;28;20093;-71
2021/12/20 04:30:15;;;;;;;12.45;8.50;;;;;;;;;;4979687;28;20057;-71
2021/12/20 04:32:44;;;;;;;13.50;9.32;;;;;;;;;;4959590;28;20176;-72
2021/12/20 04:35:12;;;;;;;11.80;8.68;;;;;;;;;;4979569;28;20081;-72
2021/12/20 04:37:41;;;;;;;14.13;9.10;;;;;;;;;;4988981;28;20140;-72
2021/12/20 04:40:11;;;;;;;13.48;8.95;;;;;;;;;;4985170;28;20054;-74
2021/12/20 04:42:37;;;;;;;12.77;9.40;;;;;;;;;;4975194;28;20454;-73
2021/12/20 04:45:04;;;;;;;11.40;8.13;;;;;;;;;;4974387;28;20058;-72
2021/12/20 04:47:31;;;;;;;11.60;8.40;;;;;;;;;;4979832;28;20688;-72
2021/12/20 04:49:57;;;;;;;13.80;8.00;;;;;;;;;;4984328;28;20057;-72
2021/12/20 04:52:24;;;;;;;13.98;8.13;;;;;;;;;;4981436;28;20053;-72
2021/12/20 04:54:50;;;;;;;13.18;8.77;;;;;;;;;;4970003;28;21532;-73
2021/12/20 04:57:17;;;;;;;12.57;7.63;;;;;;;;;;4978903;28;20525;-71
2021/12/20 04:59:44;;;;;;;9.48;7.38;;;;;;;;;;4999461;28;20467;-71
2021/12/20 05:02:10;;;;;;;13.38;7.35;;;;;;;;;;4979282;28;20049;-74
2021/12/20 05:04:36;;;;;;;11.93;6.43;;;;;;;;;;4978560;28;20058;-73
2021/12/20 05:07:03;;;;;;;12.95;7.80;;;;;;;;;;5006622;28;20136;-72
2021/12/20 05:09:36;;;;;;;11.75;6.90;;;;;;;;;;5002755;28;20060;-73
2021/12/20 05:12:11;;;;;;;9.52;6.63;;;;;;;;;;5001401;28;20558;-72
2021/12/20 05:14:47;;;;;;;9.48;7.45;;;;;;;;;;4999981;28;20064;-72
2021/12/20 05:17:14;;;;;;;12.38;7.15;;;;;;;;;;4998458;28;20054;-72
2021/12/20 05:19:44;;;;;;;10.95;6.82;;;;;;;;;;4996664;28;20297;-72
2021/12/20 05:22:11;;;;;;;10.18;6.57;;;;;;;;;;4996300;28;20057;-73
2021/12/20 05:24:38;;;;;;;9.98;6.93;;;;;;;;;;4965967;28;20049;-71
2021/12/20 05:27:05;;;;;;;12.27;6.93;;;;;;;;;;4981010;28;20056;-72
2021/12/20 05:29:31;;;;;;;8.32;6.50;;;;;;;;;;4976300;28;20050;-72
2021/12/20 05:31:58;;;;;;;8.32;6.45;;;;;;;;;;4978541;28;20565;-70
2021/12/20 05:34:25;;;;;;;9.77;6.50;;;;;;;;;;4998417;28;20609;-73
2021/12/20 05:36:51;;;;;;;12.38;7.07;;;;;;;;;;4981736;28;20579;-73
2021/12/20 05:39:17;;;;;;;11.95;6.88;;;;;;;;;;5003039;28;20049;-73
2021/12/20 05:41:43;;;;;;;15.07;7.13;;;;;;;;;;4975983;28;20636;-73
2021/12/20 05:44:11;;;;;;;11.30;7.30;;;;;;;;;;4996442;28;20738;-74
2021/12/20 05:46:37;;;;;;;11.20;6.93;;;;;;;;;;4999719;28;20168;-73
2021/12/20 05:49:04;;;;;;;12.98;7.32;;;;;;;;;;4984272;28;20089;-73
2021/12/20 05:51:30;;;;;;;10.02;6.53;;;;;;;;;;4962296;28;20049;-71
2021/12/20 05:53:56;;;;;;;9.82;6.65;;;;;;;;;;4982837;28;20454;-71
2021/12/20 05:56:22;;;;;;;12.45;7.35;;;;;;;;;;4998012;28;20524;-74
2021/12/20 05:58:49;;;;;;;9.68;7.00;;;;;;;;;;4995662;28;20045;-71
2021/12/20 06:01:15;;;;;;;11.20;7.00;;;;;;;;;;4994776;28;20351;-73
2021/12/20 06:03:41;;;;;;;12.25;7.60;;;;;;;;;;4965926;28;20054;-75
2021/12/20 06:06:08;;;;;;;11.13;7.53;;;;;;;;;;4983237;28;20068;-75
2021/12/20 06:08:35;;;;;;;8.07;6.45;;;;;;;;;;4983434;28;20049;-74
2021/12/20 06:11:01;;;;;;;12.82;7.00;;;;;;;;;;5004150;28;20435;-73
2021/12/20 06:13:27;;;;;;;9.20;6.95;;;;;;;;;;5005410;28;20057;-73
2021/12/20 06:15:54;;;;;;;10.18;6.90;;;;;;;;;;5007259;28;20056;-75
2021/12/20 06:18:20;;;;;;;11.02;7.40;;;;;;;;;;5004430;28;20081;-73
2021/12/20 06:20:47;;;;;;;9.68;7.15;;;;;;;;;;4986561;28;20506;-72
2021/12/20 06:23:13;;;;;;;10.48;7.47;;;;;;;;;;4981777;28;20064;-71
2021/12/20 06:25:39;;;;;;;11.50;7.43;;;;;;;;;;4983993;28;20597;-71
2021/12/20 06:28:06;;;;;;;11.73;7.63;;;;;;;;;;5003598;28;20061;-73
2021/12/20 06:30:32;;;;;;;14.35;8.40;;;;;;;;;;5002711;28;20093;-74
2021/12/20 06:32:58;;;;;;;14.95;8.20;;;;;;;;;;4973917;28;20160;-73
2021/12/20 06:35:25;;;;;;;13.20;8.18;;;;;;;;;;4985572;28;20056;-72
2021/12/20 06:37:59;;;;;;;12.43;8.57;;;;;;;;;;4985269;28;20053;-72
2021/12/20 06:40:25;;;;;;;;;;;;;;;;;;5004265;28;20442;-72
2021/12/20 06:42:52;;;;;;;20.52;9.40;;;;;;;;;;4983256;28;19933;-72
2021/12/20 06:45:18;;;;;;;11.70;8.88;;;;;;;;;;5004020;28;20045;-71
2021/12/20 06:47:44;;;;;;;17.48;9.80;;;;;;;;;;4974715;28;20467;-72
2021/12/20 06:50:11;;;;;;;12.20;8.65;;;;;;;;;;4981508;28;20088;-72
2021/12/20 06:52:37;;;;;;;11.52;8.73;;;;;;;;;;4980199;28;20073;-71
2021/12/20 06:55:04;;;;;;;15.00;8.85;;;;;;;;;;4982364;28;20426;-74
2021/12/20 06:57:30;;;;;;;15.63;9.63;;;;;;;;;;4978560;28;20104;-73
2021/12/20 06:59:57;;;;;;;17.10;9.20;;;;;;;;;;4982837;28;20477;-74
2021/12/20 07:02:23;;;;;;;16.17;9.52;;;;;;;;;;4973932;28;20053;-72
2021/12/20 07:04:49;;;;;;;16.60;8.68;;;;;;;;;;4980526;28;20132;-72
2021/12/20 07:07:15;;;;;;;17.08;9.55;;;;;;;;;;4982363;28;20084;-74
2021/12/20 07:09:42;;;;;;;14.35;9.75;;;;;;;;;;4982440;28;20046;-73
2021/12/20 07:12:09;;;;;;;17.40;8.93;;;;;;;;;;4980330;28;20168;-71
2021/12/20 07:14:36;;;;;;;16.80;8.88;;;;;;;;;;4983680;28;20490;-73
2021/12/20 07:17:02;;;;;;;14.55;9.90;;;;;;;;;;4981935;28;20058;-73
2021/12/20 07:19:30;;;;;;;14.82;9.77;;;;;;;;;;4983264;28;20062;-72
2021/12/20 07:21:57;;;;;;;15.70;9.43;;;;;;;;;;4980954;28;20045;-72
2021/12/20 07:24:23;;;;;;;20.23;9.77;;;;;;;;;;4985234;28;20062;-71
2021/12/20 07:26:50;;;;;;;20.20;10.80;;;;;;;;;;4979675;28;20045;-71
2021/12/20 07:29:17;;;;;;;20.83;10.38;;;;;;;;;;4966889;28;20409;-72
2021/12/20 07:31:45;;;;;;;26.95;11.00;;;;;;;;;;4979027;28;20061;-72
2021/12/20 07:34:11;;;;;;;18.42;10.90;;;;;;;;;;4985045;28;20061;-72
2021/12/20 07:36:37;;;;;;;22.13;10.95;;;;;;;;;;4981523;28;20064;-73
2021/12/20 07:39:06;;;;;;;18.70;11.13;;;;;;;;;;4983816;28;20112;-74
2021/12/20 07:41:32;;;;;;;19.42;9.95;;;;;;;;;;4978643;28;20084;-71
2021/12/20 07:43:59;;;;;;;16.90;10.02;;;;;;;;;;4967809;28;20414;-66
2021/12/20 07:46:25;;;;;;;16.77;10.10;;;;;;;;;;4980773;28;20058;-67
2021/12/20 07:48:51;;;;;;;17.05;10.88;;;;;;;;;;4970532;28;20054;-70
2021/12/20 07:51:18;;;;;;;16.83;10.20;;;;;;;;;;4998615;28;20151;-74
2021/12/20 07:53:44;;;;;;;21.08;11.13;;;;;;;;;;5009069;28;20059;-70
2021/12/20 07:56:12;;;;;;;24.92;11.20;;;;;;;;;;4991965;28;20057;-65
2021/12/20 07:58:39;;;;;;;18.38;10.95;;;;;;;;;;4971936;28;20461;-68
2021/12/20 08:01:05;;;;;;;18.08;12.18;;;;;;;;;;4966815;28;20049;-71
2021/12/20 08:03:34;;;;;;;19.85;12.10;;;;;;;;;;5006259;28;20135;-71
2021/12/20 08:06:00;;;;;;;19.13;12.35;;;;;;;;;;5008792;28;20049;-70
2021/12/20 08:08:27;;;;;;;23.95;13.00;;;;;;;;;;5007723;28;20164;-75
2021/12/20 08:10:54;;;;;;;25.77;12.88;;;;;;;;;;4990681;28;20049;-69
2021/12/20 08:13:20;;;;;;;26.13;13.88;;;;;;;;;;5005926;28;20180;-69
2021/12/20 08:15:47;;;;;;;27.95;13.93;;;;;;;;;;5009257;28;20676;-73
2021/12/20 08:18:13;;;;;;;20.95;13.70;;;;;;;;;;4984144;28;20063;-67
2021/12/20 08:20:40;;;;;;;24.10;14.70;;;;;;;;;;5006577;28;20128;-68
2021/12/20 08:23:07;;;;;;;22.50;14.80;;;;;;;;;;5002845;28;20049;-68
2021/12/20 08:25:35;;;;;;;32.67;16.50;;;;;;;;;;5005662;28;21032;-70
2021/12/20 08:28:02;;;;;;;31.05;15.77;;;;;;;;;;5004869;28;20076;-69
2021/12/20 08:30:29;;;;;;;29.92;16.30;;;;;;;;;;4988890;28;20049;-70
2021/12/20 08:32:55;;;;;;;36.33;16.05;;;;;;;;;;5001091;28;20049;-67
2021/12/20 08:35:22;;;;;;;32.42;17.65;;;;;;;;;;4989683;28;20052;-69
2021/12/20 08:37:48;;;;;;;28.83;15.27;;;;;;;;;;4971790;28;20057;-68
2021/12/20 08:40:15;;;;;;;26.65;14.05;;;;;;;;;;4987377;28;20427;-67
2021/12/20 08:42:43;;;;;;;31.05;15.80;;;;;;;;;;4975399;28;20057;-70
2021/12/20 08:45:13;;;;;;;31.83;13.75;;;;;;;;;;5004955;28;20064;-68
2021/12/20 08:47:39;;;;;;;41.17;18.77;;;;;;;;;;4969611;28;20063;-67
2021/12/20 08:50:11;;;;;;;38.83;16.15;;;;;;;;;;5003193;28;20688;-70
2021/12/20 08:52:39;;;;;;;29.02;15.63;;;;;;;;;;5002054;28;20144;-66
2021/12/20 08:55:07;;;;;;;23.88;14.00;;;;;;;;;;4980533;28;20448;-68
2021/12/20 08:57:33;;;;;;;37.53;15.38;;;;;;;;;;5004766;28;20472;-68
2021/12/20 09:00:00;;;;;;;30.95;14.77;;;;;;;;;;4993835;28;20049;-69
2021/12/20 09:02:26;;;;;;;24.23;13.45;;;;;;;;;;5003249;28;20083;-72
2021/12/20 09:04:52;;;;;;;21.60;12.82;;;;;;;;;;5006417;28;20060;-70
2021/12/20 09:07:18;;;;;;;24.73;12.30;;;;;;;;;;4987179;28;20049;-68
2021/12/20 09:09:47;;;;;;;20.05;11.48;;;;;;;;;;5003369;28;20063;-70
2021/12/20 09:12:18;;;;;;;26.40;12.27;;;;;;;;;;5001581;28;20106;-70
2021/12/20 09:14:46;;;;;;;27.25;11.52;;;;;;;;;;5006517;28;20135;-69
2021/12/20 09:17:12;;;;;;;27.65;11.90;;;;;;;;;;5004196;28;20132;-71
2021/12/20 09:19:39;;;;;;;31.63;12.88;;;;;;;;;;4986059;28;20769;-70
2021/12/20 09:22:06;;;;;;;17.48;10.63;;;;;;;;;;4982016;28;20056;-68
2021/12/20 09:24:34;;;;;;;21.13;11.75;;;;;;;;;;5005718;28;20049;-68
2021/12/20 09:27:01;;;;;;;22.73;11.77;;;;;;;;;;4988319;28;20283;-70
2021/12/20 09:29:27;;;;;;;20.23;10.73;;;;;;;;;;4988859;28;20046;-68
2021/12/20 09:31:55;;;;;;;22.33;10.90;;;;;;;;;;4984007;28;20132;-71
2021/12/20 09:34:21;;;;;;;16.17;11.07;;;;;;;;;;4971417;28;20073;-67
2021/12/20 09:36:47;;;;;;;17.02;10.60;;;;;;;;;;5005086;28;20413;-67
2021/12/20 09:39:16;;;;;;;21.73;11.45;;;;;;;;;;5005210;28;20061;-66
2021/12/20 09:44:11;;;;;;;19.63;11.60;;;;;;;;;;5008320;28;20060;-65
2021/12/20 09:46:39;;;;;;;21.73;10.57;;;;;;;;;;5010891;28;20061;-66
2021/12/20 09:49:06;;;;;;;16.88;10.77;;;;;;;;;;4975702;28;20058;-66
2021/12/20 09:51:32;;;;;;;16.60;10.05;;;;;;;;;;5003475;28;20528;-69
2021/12/20 09:53:59;;;;;;;16.70;8.90;;;;;;;;;;5009648;28;20422;-70
2021/12/20 09:56:28;;;;;;;16.13;9.20;;;;;;;;;;4991570;28;20839;-66
2021/12/20 09:58:57;;;;;;;16.38;9.05;;;;;;;;;;5008894;28;20191;-67
2021/12/20 10:01:25;;;;;;;17.63;8.55;;;;;;;;;;4987261;28;20057;-68
2021/12/20 10:03:53;;;;;;;14.18;8.23;;;;;;;;;;4991347;28;20076;-71
2021/12/20 10:06:20;;;;;;;20.52;8.55;;;;;;;;;;5008248;28;20045;-72
2021/12/20 10:08:55;;;;;;;20.83;8.68;;;;;;;;;;5008579;28;20061;-64
2021/12/20 10:11:27;;;;;;;16.10;8.02;;;;;;;;;;4987097;28;20049;-70
2021/12/20 10:14:10;;;;;;;19.83;9.40;;;;;;;;;;4990318;28;20061;-70
2021/12/20 10:16:38;;;;;;;17.20;7.40;;;;;;;;;;4991430;28;20076;-70
2021/12/20 10:19:09;;;;;;;14.68;7.85;;;;;;;;;;5011129;28;20063;-67
2021/12/20 10:21:39;;;;;;;13.68;7.75;;;;;;;;;;4987864;28;20590;-69
2021/12/20 10:24:05;;;;;;;15.32;7.68;;;;;;;;;;5009762;28;20116;-66
2021/12/20 10:26:40;;;;;;;13.48;8.20;;;;;;;;;;5006296;28;20099;-69
2021/12/20 10:29:18;;;;;;;15.18;7.93;;;;;;;;;;5007340;28;20045;-66
2021/12/20 10:31:45;;;;;;;20.13;7.47;;;;;;;;;;5004119;28;20057;-68
2021/12/20 10:34:13;;;;;;;11.88;6.90;;;;;;;;;;4991837;28;20068;-68
2021/12/20 10:36:57;;;;;;;13.43;6.15;;;;;;;;;;4991269;28;20949;-71
2021/12/20 10:39:43;;;;;;;9.18;5.50;;;;;;;;;;4993067;28;20122;-70
2021/12/20 10:42:21;;;;;;;17.77;5.57;;;;;;;;;;5002757;28;20056;-69
2021/12/20 10:45:13;;;;;;;9.35;5.30;;;;;;;;;;5009992;28;20057;-70
2021/12/20 10:47:41;;;;;;;12.65;5.75;;;;;;;;;;5007325;28;20595;-69
2021/12/20 10:50:34;;;;;;;13.38;5.88;;;;;;;;;;5008809;28;20140;-71
2021/12/20 10:53:23;;;;;;;11.65;6.20;;;;;;;;;;4986802;28;20187;-69
2021/12/20 10:56:03;;;;;;;8.13;5.20;;;;;;;;;;4991004;28;20178;-71
2021/12/20 10:58:38;;;;;;;9.30;5.80;;;;;;;;;;4989961;28;20123;-70
2021/12/20 11:02:22;;;;;;;9.27;5.53;;;;;;;;;;4989531;28;20053;-67
2021/12/20 11:04:38;;;;;;;14.80;6.07;;;;;;;;;;4993811;28;20124;-68
2021/12/20 11:09:44;;;;;;;14.63;6.13;;;;;;;;;;4989415;28;20388;-65
2021/12/20 11:12:13;;;;;;;15.40;7.05;;;;;;;;;;5003921;28;20049;-73
2021/12/20 11:14:44;;;;;;;12.02;7.05;;;;;;;;;;4974813;28;20059;-66
2021/12/20 11:17:15;;;;;;;10.63;6.57;;;;;;;;;;5008280;28;20642;-67
2021/12/20 11:19:43;;;;;;;16.00;6.65;;;;;;;;;;5006308;28;20145;-66
2021/12/20 11:22:24;;;;;;;12.63;6.63;;;;;;;;;;5004594;28;20064;-69
2021/12/20 11:25:03;;;;;;;15.95;6.20;;;;;;;;;;5007465;28;20123;-71
2021/12/20 11:27:35;;;;;;;15.20;7.00;;;;;;;;;;5007420;28;20054;-73
2021/12/20 11:30:10;;;;;;;17.52;6.25;;;;;;;;;;5006909;28;20085;-69
2021/12/20 11:32:37;;;;;;;11.48;6.30;;;;;;;;;;4969015;28;20057;-67
2021/12/20 11:35:05;;;;;;;10.45;6.32;;;;;;;;;;5007929;28;20046;-67
2021/12/20 11:37:31;;;;;;;12.32;5.55;;;;;;;;;;4973732;28;20077;-68
2021/12/20 11:40:00;;;;;;;10.02;5.40;;;;;;;;;;5006640;28;20053;-70
2021/12/20 11:42:26;;;;;;;10.73;4.88;;;;;;;;;;5004118;28;20557;-67
2021/12/20 11:44:58;;;;;;;8.05;5.18;;;;;;;;;;4990475;28;20061;-71
2021/12/20 11:47:42;;;;;;;9.60;5.10;;;;;;;;;;4989291;28;20049;-71
2021/12/20 11:50:15;;;;;;;9.27;5.28;;;;;;;;;;5006414;28;20407;-70
2021/12/20 11:52:44;;;;;;;14.45;5.05;;;;;;;;;;5002575;28;20057;-66
2021/12/20 11:55:23;;;;;;;7.72;4.95;;;;;;;;;;5008707;28;20053;-68
2021/12/20 11:57:54;;;;;;;18.45;5.43;;;;;;;;;;5006443;28;20056;-72
2021/12/20 12:00:20;;;;;;;9.00;4.32;;;;;;;;;;5007104;28;20061;-69
2021/12/20 12:02:49;;;;;;;9.48;5.40;;;;;;;;;;5005194;28;20056;-69
2021/12/20 12:05:29;;;;;;;11.05;5.60;;;;;;;;;;5013295;28;20652;-68
2021/12/20 12:08:24;;;;;;;9.73;4.82;;;;;;;;;;4993031;28;20041;-69
2021/12/20 12:10:58;;;;;;;7.25;4.07;;;;;;;;;;4994925;28;20115;-74
2021/12/20 12:13:29;;;;;;;9.75;3.90;;;;;;;;;;4992092;28;20781;-71
2021/12/20 12:16:03;;;;;;;11.02;3.95;;;;;;;;;;4996390;28;20078;-73
2021/12/20 12:18:50;;;;;;;4.18;2.90;;;;;;;;;;5012201;28;20064;-71
2021/12/20 12:21:32;;;;;;;6.25;3.00;;;;;;;;;;5008031;28;20056;-74
2021/12/20 12:24:09;;;;;;;7.07;3.10;;;;;;;;;;5014450;28;20409;-71
2021/12/20 12:26:56;;;;;;;4.05;2.53;;;;;;;;;;4993634;28;20490;-66
2021/12/20 12:29:23;;;;;;;3.78;2.15;;;;;;;;;;5012434;28;20076;-73
2021/12/20 12:31:56;;;;;;;9.85;2.72;;;;;;;;;;5008019;28;20595;-74
2021/12/20 12:34:36;;;;;;;5.55;1.77;;;;;;;;;;4996116;28;20053;-70
2021/12/20 12:37:19;;;;;;;6.63;2.30;;;;;;;;;;4993902;28;20080;-71
2021/12/20 12:39:45;;;;;;;7.45;2.10;;;;;;;;;;4994599;28;20049;-69
2021/12/20 12:42:12;;;;;;;7.18;2.08;;;;;;;;;;5007788;28;20064;-68
2021/12/20 12:44:48;;;;;;;6.65;2.40;;;;;;;;;;5012285;28;20889;-69
2021/12/20 12:47:15;;;;;;;7.03;2.38;;;;;;;;;;5012664;28;20061;-70
2021/12/20 12:49:50;;;;;;;8.85;2.20;;;;;;;;;;4995012;28;20061;-68
2021/12/20 12:52:17;;;;;;;3.40;2.10;;;;;;;;;;4992476;28;20057;-73
2021/12/20 12:54:58;;;;;;;3.90;2.40;;;;;;;;;;5013411;28;20050;-69
2021/12/20 12:57:24;;;;;;;4.00;2.20;;;;;;;;;;4993721;28;20079;-71
2021/12/20 12:59:52;;;;;;;3.47;2.10;;;;;;;;;;5011844;28;20087;-69
2021/12/20 13:02:32;;;;;;;9.80;2.35;;;;;;;;;;4989749;28;20057;-68
2021/12/20 13:05:14;;;;;;;3.53;1.88;;;;;;;;;;4992036;28;20478;-67
2021/12/20 13:07:53;;;;;;;3.80;1.80;;;;;;;;;;5010608;28;20050;-69
2021/12/20 13:10:29;;;;;;;5.30;2.40;;;;;;;;;;5013306;28;20064;-66
2021/12/20 13:13:05;;;;;;;7.60;2.72;;;;;;;;;;4975105;28;20045;-71
2021/12/20 13:18:34;;;;;;;4.47;2.10;;;;;;;;;;4997709;28;20078;-73
2021/12/20 13:21:04;;;;;;;5.20;2.22;;;;;;;;;;5011631;28;20076;-69
2021/12/20 13:23:42;;;;;;;6.90;3.10;;;;;;;;;;4994588;28;20053;-68
2021/12/20 13:26:11;;;;;;;12.30;3.40;;;;;;;;;;4995272;28;20061;-69
2021/12/20 13:28:40;;;;;;;6.38;2.58;;;;;;;;;;5012601;28;20136;-71
2021/12/20 13:31:13;;;;;;;7.57;3.13;;;;;;;;;;4979343;28;20045;-71
2021/12/20 13:33:51;;;;;;;8.55;3.40;;;;;;;;;;5012668;28;20594;-71
2021/12/20 13:36:20;;;;;;;8.25;2.83;;;;;;;;;;5013165;28;20709;-74
2021/12/20 13:38:50;;;;;;;6.97;2.42;;;;;;;;;;5012639;28;20598;-68
2021/12/20 13:41:17;;;;;;;6.82;2.90;;;;;;;;;;4991720;28;20057;-73
2021/12/20 13:43:58;;;;;;;5.18;2.63;;;;;;;;;;5012019;28;20064;-71
2021/12/20 13:46:31;;;;;;;8.15;3.78;;;;;;;;;;4993835;28;20048;-70
2021/12/20 13:49:15;;;;;;;9.18;2.92;;;;;;;;;;4994649;28;20612;-70
2021/12/20 13:51:43;;;;;;;9.27;3.08;;;;;;;;;;5007841;28;20065;-72
2021/12/20 13:54:31;;;;;;;18.45;5.18;;;;;;;;;;5005276;28;20187;-69
2021/12/20 13:57:14;;;;;;;9.45;2.97;;;;;;;;;;5004692;28;20049;-71
2021/12/20 13:59:56;;;;;;;9.80;4.25;;;;;;;;;;5002144;28;20046;-76
2021/12/20 14:02:24;;;;;;;9.48;4.05;;;;;;;;;;4999518;28;20499;-73
2021/12/20 14:04:53;;;;;;;12.35;5.50;;;;;;;;;;5004725;28;20057;-73
2021/12/20 14:07:39;;;;;;;12.60;3.60;;;;;;;;;;5006333;28;20426;-71
2021/12/20 14:10:14;;;;;;;13.88;4.10;;;;;;;;;;5000988;28;20045;-72
2021/12/20 14:12:42;;;;;;;10.52;4.05;;;;;;;;;;5000460;28;20068;-69
2021/12/20 14:15:19;;;;;;;9.25;3.92;;;;;;;;;;4988514;28;20422;-66
2021/12/20 14:17:56;;;;;;;9.00;3.63;;;;;;;;;;5005868;28;20057;-68
2021/12/20 14:20:37;;;;;;;8.20;3.58;;;;;;;;;;5005037;28;20091;-72
2021/12/20 14:23:06;;;;;;;7.85;3.90;;;;;;;;;;4999673;28;20053;-72
2021/12/20 14:25:41;;;;;;;7.45;3.60;;;;;;;;;;4987094;28;20060;-73
2021/12/20 14:28:15;;;;;;;6.05;3.28;;;;;;;;;;4987563;28;20143;-67
2021/12/20 14:30:50;;;;;;;17.88;7.07;;;;;;;;;;5007163;28;20377;-66
2021/12/20 14:33:25;;;;;;;15.43;6.13;;;;;;;;;;4987904;28;20068;-68
2021/12/20 14:35:54;;;;;;;11.30;4.93;;;;;;;;;;4975505;28;20984;-71
2021/12/20 14:38:47;;;;;;;9.93;4.63;;;;;;;;;;4992737;28;20053;-71
2021/12/20 14:41:32;;;;;;;13.55;4.75;;;;;;;;;;4986712;28;20057;-69
2021/12/20 14:44:06;;;;;;;7.95;3.83;;;;;;;;;;5009005;28;20055;-69
2021/12/20 14:46:56;;;;;;;8.88;3.90;;;;;;;;;;4973631;28;20065;-72
2021/12/20 14:49:58;;;;;;;9.55;3.70;;;;;;;;;;5007707;28;20062;-71
2021/12/20 14:52:31;;;;;;;6.63;3.30;;;;;;;;;;5004339;28;20144;-70
2021/12/20 14:55:06;;;;;;;5.78;3.28;;;;;;;;;;4991166;28;20171;-72
2021/12/20 14:57:34;;;;;;;7.70;3.75;;;;;;;;;;5006917;28;20059;-71
2021/12/20 15:00:06;;;;;;;10.95;4.20;;;;;;;;;;5009530;28;20045;-69
2021/12/20 15:02:38;;;;;;;12.10;4.35;;;;;;;;;;5003549;28;20143;-68
2021/12/20 15:05:06;;;;;;;8.10;4.07;;;;;;;;;;5007837;28;20045;-71
2021/12/20 15:07:34;;;;;;;14.30;5.38;;;;;;;;;;5007110;28;20106;-68
2021/12/20 15:10:01;;;;;;;15.93;4.60;;;;;;;;;;5006167;28;20132;-70